createdAt,value
2018-04-22T00:01:49.364Z,14.13
2018-04-22T00:04:16.848Z,16.37
2018-04-22T00:06:44.329Z,14.67
2018-04-22T00:09:13.104Z,14.23
2018-04-22T00:11:41.331Z,15.07
2018-04-22T00:14:08.841Z,15.80
2018-04-22T00:16:37.081Z,15.83
2018-04-22T00:19:04.576Z,14.97
2018-04-22T00:21:32.833Z,16.57
2018-04-22T00:24:00.338Z,13.37
2018-04-22T00:26:27.842Z,16.97
2018-04-22T00:28:55.338Z,18.93
2018-04-22T00:31:22.812Z,16.87
2018-04-22T00:33:50.314Z,16.70
2018-04-22T00:36:17.796Z,17.97
2018-04-22T00:38:46.039Z,16.43
2018-04-22T00:41:13.659Z,17.23
2018-04-22T00:43:41.163Z,16.27
2018-04-22T00:46:09.400Z,20.63
2018-04-22T00:48:36.917Z,21.10
2018-04-22T00:51:05.170Z,19.20
2018-04-22T00:56:31.811Z,17.00
2018-04-22T00:58:59.305Z,17.70
2018-04-22T01:01:27.594Z,18.50
2018-04-22T01:03:55.831Z,17.17
2018-04-22T01:06:23.317Z,17.27
2018-04-22T01:08:51.579Z,19.93
2018-04-22T01:11:19.048Z,16.30
2018-04-22T01:13:47.340Z,16.87
2018-04-22T01:16:14.815Z,18.27
2018-04-22T01:18:42.299Z,17.30
2018-04-22T01:21:09.756Z,16.13
2018-04-22T01:23:37.244Z,18.20
2018-04-22T01:26:04.714Z,19.33
2018-04-22T01:28:32.310Z,18.23
2018-04-22T01:31:00.580Z,17.67
2018-04-22T01:33:28.059Z,20.13
2018-04-22T01:35:55.605Z,17.57
2018-04-22T01:38:23.838Z,17.10
2018-04-22T01:40:51.440Z,17.57
2018-04-22T01:43:19.682Z,20.70
2018-04-22T01:45:47.172Z,17.50
2018-04-22T01:48:15.487Z,16.67
2018-04-22T01:50:43.004Z,17.70
2018-04-22T01:53:11.245Z,19.23
2018-04-22T01:55:38.842Z,18.10
2018-04-22T01:58:07.079Z,17.33
2018-04-22T02:00:34.607Z,15.90
2018-04-22T02:03:02.088Z,16.53
2018-04-22T02:05:29.582Z,22.67
2018-04-22T02:07:57.079Z,19.07
2018-04-22T02:10:24.646Z,18.83
2018-04-22T02:12:52.112Z,16.93
2018-04-22T02:15:19.710Z,17.40
2018-04-22T02:17:47.948Z,20.33
2018-04-22T02:20:15.444Z,17.40
2018-04-22T02:22:43.679Z,18.43
2018-04-22T02:25:11.191Z,19.03
2018-04-22T02:27:38.667Z,18.87
2018-04-22T02:30:06.191Z,18.87
2018-04-22T02:32:34.429Z,19.53
2018-04-22T02:35:01.925Z,21.07
2018-04-22T02:37:30.167Z,18.33
2018-04-22T02:39:57.668Z,17.83
2018-04-22T02:42:25.203Z,23.83
2018-04-22T02:44:52.822Z,27.57
2018-04-22T02:47:20.339Z,22.77
2018-04-22T02:49:48.590Z,20.10
2018-04-22T02:52:16.094Z,19.73
2018-04-22T02:54:43.578Z,18.57
2018-04-22T02:57:11.046Z,19.27
2018-04-22T02:59:38.538Z,18.77
2018-04-22T03:02:06.777Z,22.20
2018-04-22T03:04:34.264Z,18.17
2018-04-22T03:07:02.580Z,21.10
2018-04-22T03:09:30.099Z,22.10
2018-04-22T03:11:58.338Z,17.40
2018-04-22T03:14:25.822Z,19.87
2018-04-22T03:16:53.356Z,19.90
2018-04-22T03:19:20.850Z,24.67
2018-04-22T03:21:49.157Z,18.53
2018-04-22T03:24:16.700Z,18.50
2018-04-22T03:26:44.938Z,18.67
2018-04-22T03:29:12.466Z,19.03
2018-04-22T03:31:40.007Z,21.33
2018-04-22T03:34:07.507Z,23.03
2018-04-22T03:36:35.025Z,20.30
2018-04-22T03:39:02.565Z,17.63
2018-04-22T03:41:30.838Z,18.63
2018-04-22T03:43:59.072Z,21.07
2018-04-22T03:46:26.592Z,23.03
2018-04-22T03:48:54.072Z,23.07
2018-04-22T03:51:21.567Z,27.57
2018-04-22T03:53:49.047Z,25.43
2018-04-22T03:56:16.532Z,21.23
2018-04-22T03:58:44.002Z,21.70
2018-04-22T04:01:11.482Z,28.70
2018-04-22T04:03:40.449Z,24.00
2018-04-22T04:06:07.983Z,23.67
2018-04-22T04:08:35.442Z,18.80
2018-04-22T04:11:02.959Z,26.60
2018-04-22T04:13:30.517Z,21.63
2018-04-22T04:15:58.762Z,21.13
2018-04-22T04:21:43.726Z,23.43
2018-04-22T04:27:19.703Z,23.53
2018-04-22T04:29:47.186Z,20.70
2018-04-22T04:32:14.670Z,26.20
2018-04-22T04:34:42.165Z,22.77
2018-04-22T04:37:09.727Z,20.60
2018-04-22T04:39:37.199Z,19.70
2018-04-22T04:42:04.701Z,24.17
2018-04-22T04:44:32.944Z,21.87
2018-04-22T04:47:00.539Z,20.50
2018-04-22T04:49:28.792Z,22.57
2018-04-22T04:51:56.280Z,22.07
2018-04-22T04:54:24.557Z,25.33
2018-04-22T04:56:52.035Z,21.33
2018-04-22T04:59:19.507Z,19.27
2018-04-22T05:01:47.023Z,20.77
2018-04-22T05:04:15.263Z,19.60
2018-04-22T05:06:42.775Z,24.07
2018-04-22T05:09:10.244Z,22.17
2018-04-22T05:11:37.741Z,21.57
2018-04-22T05:14:05.241Z,20.63
2018-04-22T05:16:33.486Z,24.07
2018-04-22T05:19:00.968Z,18.80
2018-04-22T05:21:29.229Z,23.30
2018-04-22T05:23:57.483Z,21.97
2018-04-22T05:26:25.064Z,20.30
2018-04-22T05:28:52.543Z,23.10
2018-04-22T05:31:20.037Z,25.00
2018-04-22T05:33:47.541Z,23.47
2018-04-22T05:36:15.801Z,25.70
2018-04-22T05:38:43.271Z,20.30
2018-04-22T05:41:10.748Z,24.07
2018-04-22T05:43:38.309Z,23.50
2018-04-22T05:46:05.816Z,19.37
2018-04-22T05:48:33.298Z,22.47
2018-04-22T05:51:00.863Z,22.63
2018-04-22T05:53:29.105Z,20.10
2018-04-22T05:55:56.621Z,22.83
2018-04-22T05:58:24.191Z,21.33
2018-04-22T06:00:51.672Z,19.60
2018-04-22T06:03:19.164Z,20.87
2018-04-22T06:05:46.656Z,24.27
2018-04-22T06:08:14.125Z,21.63
2018-04-22T06:10:41.681Z,25.23
2018-04-22T06:13:09.149Z,19.43
2018-04-22T06:15:36.639Z,23.10
2018-04-22T06:18:04.112Z,22.80
2018-04-22T06:20:32.366Z,23.93
2018-04-22T06:22:59.838Z,24.67
2018-04-22T06:25:27.354Z,22.43
2018-04-22T06:27:54.837Z,21.77
2018-04-22T06:30:22.326Z,22.37
2018-04-22T06:32:50.628Z,21.40
2018-04-22T06:35:18.135Z,20.30
2018-04-22T06:37:45.618Z,23.77
2018-04-22T06:40:13.971Z,23.53
2018-04-22T06:42:41.446Z,23.80
2018-04-22T06:45:09.672Z,21.63
2018-04-22T06:47:37.164Z,22.43
2018-04-22T06:50:04.648Z,20.70
2018-04-22T06:52:32.193Z,21.20
2018-04-22T06:54:59.665Z,21.70
2018-04-22T06:57:27.276Z,23.10
2018-04-22T06:59:56.251Z,25.57
2018-04-22T07:02:23.744Z,22.00
2018-04-22T07:04:51.982Z,25.03
2018-04-22T07:07:19.555Z,19.43
2018-04-22T07:09:47.115Z,23.70
2018-04-22T07:12:14.601Z,25.53
2018-04-22T07:14:42.844Z,23.43
2018-04-22T07:17:10.338Z,26.97
2018-04-22T07:19:38.594Z,25.23
2018-04-22T07:22:06.085Z,21.60
2018-04-22T07:24:33.556Z,24.87
2018-04-22T07:27:01.084Z,24.47
2018-04-22T07:29:29.344Z,24.10
2018-04-22T07:31:56.894Z,27.77
2018-04-22T07:34:24.367Z,23.67
2018-04-22T07:36:52.632Z,22.90
2018-04-22T07:39:20.871Z,26.03
2018-04-22T07:41:48.350Z,21.70
2018-04-22T07:44:15.819Z,25.93
2018-04-22T07:46:43.314Z,23.77
2018-04-22T07:49:10.771Z,23.97
2018-04-22T07:51:38.277Z,21.57
2018-04-22T07:54:05.780Z,27.07
2018-04-22T07:56:34.028Z,25.93
2018-04-22T07:59:02.277Z,24.90
2018-04-22T08:01:29.765Z,22.57
2018-04-22T08:03:57.253Z,32.37
2018-04-22T08:06:24.792Z,26.83
2018-04-22T08:08:53.027Z,29.20
2018-04-22T08:11:20.522Z,24.17
2018-04-22T08:13:48.789Z,25.67
2018-04-22T08:16:16.330Z,26.47
2018-04-22T08:18:43.774Z,28.73
2018-04-22T08:21:11.312Z,25.33
2018-04-22T08:23:38.787Z,25.17
2018-04-22T08:26:06.276Z,25.47
2018-04-22T08:28:34.615Z,24.63
2018-04-22T08:31:02.097Z,24.97
2018-04-22T08:33:29.574Z,22.87
2018-04-22T08:35:57.065Z,22.80
2018-04-22T08:38:24.529Z,23.17
2018-04-22T08:40:52.046Z,22.60
2018-04-22T08:43:19.512Z,23.33
2018-04-22T08:45:47.768Z,27.33
2018-04-22T08:48:15.339Z,25.87
2018-04-22T08:50:42.889Z,24.30
2018-04-22T08:53:10.340Z,29.20
2018-04-22T08:55:37.827Z,24.53
2018-04-22T08:58:06.095Z,27.70
2018-04-22T09:00:34.337Z,26.17
2018-04-22T09:03:01.835Z,24.27
2018-04-22T09:05:30.072Z,23.00
2018-04-22T09:07:57.557Z,26.10
2018-04-22T09:10:25.041Z,22.37
2018-04-22T09:12:52.519Z,25.30
2018-04-22T09:15:20.012Z,22.40
2018-04-22T09:17:47.503Z,26.87
2018-04-22T09:20:15.806Z,25.13
2018-04-22T09:22:43.323Z,28.63
2018-04-22T09:25:11.564Z,21.53
2018-04-22T09:27:39.056Z,23.13
2018-04-22T09:30:06.542Z,24.90
2018-04-22T09:32:34.056Z,31.77
2018-04-22T09:35:01.535Z,24.00
2018-04-22T09:37:29.848Z,26.27
2018-04-22T09:39:57.364Z,23.87
2018-04-22T09:42:25.641Z,24.27
2018-04-22T09:44:53.875Z,25.37
2018-04-22T09:47:21.360Z,24.53
2018-04-22T09:49:49.612Z,24.33
2018-04-22T09:52:17.099Z,20.13
2018-04-22T09:54:45.340Z,23.83
2018-04-22T09:57:12.913Z,21.17
2018-04-22T09:59:40.393Z,22.67
2018-04-22T10:02:14.343Z,22.33
2018-04-22T10:04:41.808Z,25.73
2018-04-22T10:07:09.320Z,21.47
2018-04-22T10:09:36.790Z,21.43
2018-04-22T10:12:04.279Z,22.13
2018-04-22T10:14:31.770Z,19.13
2018-04-22T10:17:00.022Z,23.07
2018-04-22T10:19:27.561Z,19.67
2018-04-22T10:21:55.071Z,24.83
2018-04-22T10:24:22.525Z,19.10
2018-04-22T10:26:50.830Z,22.80
2018-04-22T10:29:18.296Z,24.97
2018-04-22T10:31:45.794Z,17.80
2018-04-22T10:34:13.304Z,18.73
2018-04-22T10:36:40.865Z,20.53
2018-04-22T10:39:08.340Z,18.67
2018-04-22T10:41:35.828Z,20.23
2018-04-22T10:44:03.312Z,19.00
2018-04-22T10:46:31.574Z,21.23
2018-04-22T10:48:59.142Z,37.03
2018-04-22T10:51:27.423Z,31.60
2018-04-22T10:53:55.660Z,20.07
2018-04-22T10:56:23.197Z,31.83
2018-04-22T10:58:50.660Z,23.60
2018-04-22T11:01:19.138Z,19.73
2018-04-22T11:03:46.630Z,14.80
2018-04-22T11:06:14.120Z,13.70
2018-04-22T11:08:41.578Z,12.83
2018-04-22T11:11:09.067Z,23.87
2018-04-22T11:13:36.584Z,13.93
2018-04-22T11:16:04.843Z,15.23
2018-04-22T11:18:32.329Z,13.70
2018-04-22T11:20:59.858Z,18.73
2018-04-22T11:23:27.348Z,15.13
2018-04-22T11:25:54.833Z,16.00
2018-04-22T11:28:22.334Z,14.07
2018-04-22T11:30:49.827Z,11.40
2018-04-22T11:33:17.371Z,16.07
2018-04-22T11:35:44.854Z,16.93
2018-04-22T11:38:12.880Z,14.83
2018-04-22T11:40:41.121Z,14.37
2018-04-22T11:43:08.623Z,18.80
2018-04-22T11:45:36.876Z,14.70
2018-04-22T11:48:04.377Z,13.63
2018-04-22T11:50:31.853Z,16.37
2018-04-22T11:52:59.345Z,17.70
2018-04-22T11:55:27.575Z,17.00
2018-04-22T11:57:55.598Z,17.60
2018-04-22T12:00:23.093Z,17.83
2018-04-22T12:02:50.587Z,14.53
2018-04-22T12:05:18.083Z,14.50
2018-04-22T12:07:46.328Z,14.00
2018-04-22T12:10:13.846Z,14.33
2018-04-22T12:12:41.369Z,14.93
2018-04-22T12:15:09.602Z,13.70
2018-04-22T12:17:37.085Z,13.73
2018-04-22T12:20:04.555Z,16.50
2018-04-22T12:22:32.154Z,14.13
2018-04-22T12:24:59.631Z,16.13
2018-04-22T12:27:27.149Z,13.10
2018-04-22T12:29:55.397Z,14.20
2018-04-22T12:32:22.961Z,13.47
2018-04-22T12:34:50.532Z,15.37
2018-04-22T12:37:18.784Z,14.33
2018-04-22T12:39:46.260Z,12.27
2018-04-22T12:42:13.752Z,13.67
2018-04-22T12:44:41.221Z,15.47
2018-04-22T12:47:08.728Z,15.37
2018-04-22T12:49:36.196Z,14.70
2018-04-22T12:52:04.451Z,13.53
2018-04-22T12:54:31.945Z,12.50
2018-04-22T12:57:00.324Z,13.40
2018-04-22T12:59:29.440Z,12.50
2018-04-22T13:01:56.952Z,13.60
2018-04-22T13:04:24.411Z,12.07
2018-04-22T13:06:52.729Z,11.47
2018-04-22T13:09:20.253Z,11.13
2018-04-22T13:11:48.517Z,14.00
2018-04-22T13:14:15.983Z,10.97
2018-04-22T13:16:44.248Z,13.93
2018-04-22T13:19:11.863Z,14.87
2018-04-22T13:21:40.232Z,11.20
2018-04-22T13:24:07.727Z,11.43
2018-04-22T13:26:35.187Z,12.00
2018-04-22T13:29:02.680Z,11.60
2018-04-22T13:31:30.915Z,9.80
2018-04-22T13:33:58.415Z,13.80
2018-04-22T13:36:25.893Z,14.23
2018-04-22T13:38:53.377Z,10.87
2018-04-22T13:41:20.913Z,11.03
2018-04-22T13:43:48.401Z,12.20
2018-04-22T13:46:15.928Z,8.93
2018-04-22T13:48:43.452Z,15.53
2018-04-22T13:51:11.865Z,10.10
2018-04-22T13:53:39.566Z,8.53
2018-04-22T13:56:07.044Z,16.17
2018-04-22T13:58:34.534Z,10.27
2018-04-22T14:01:02.042Z,9.13
2018-04-22T14:03:29.672Z,9.00
2018-04-22T14:05:57.152Z,7.90
2018-04-22T14:08:24.747Z,10.67
2018-04-22T14:10:52.985Z,14.13
2018-04-22T14:13:20.475Z,15.20
2018-04-22T14:15:48.067Z,10.87
2018-04-22T14:18:15.703Z,10.20
2018-04-22T14:20:43.978Z,10.93
2018-04-22T14:23:12.239Z,11.97
2018-04-22T14:25:39.702Z,9.23
2018-04-22T14:28:08.031Z,13.13
2018-04-22T14:30:35.498Z,13.13
2018-04-22T14:33:02.994Z,8.90
2018-04-22T14:35:31.232Z,14.17
2018-04-22T14:37:58.721Z,9.30
2018-04-22T14:40:27.019Z,8.33
2018-04-22T14:42:55.268Z,15.83
2018-04-22T14:45:34.578Z,13.70
2018-04-22T14:48:02.177Z,11.53
2018-04-22T14:50:30.438Z,16.37
2018-04-22T14:52:57.924Z,11.57
2018-04-22T14:55:25.403Z,10.80
2018-04-22T14:57:52.993Z,7.33
2018-04-22T15:00:20.483Z,6.63
2018-04-22T15:02:48.764Z,10.13
2018-04-22T15:05:17.084Z,16.17
2018-04-22T15:07:45.316Z,8.37
2018-04-22T15:10:13.588Z,7.33
2018-04-22T15:12:41.886Z,5.60
2018-04-22T15:15:09.354Z,10.50
2018-04-22T15:17:36.840Z,7.53
2018-04-22T15:20:04.388Z,8.47
2018-04-22T15:22:32.032Z,5.83
2018-04-22T15:24:59.554Z,8.33
2018-04-22T15:27:27.006Z,8.57
2018-04-22T15:29:54.496Z,10.93
2018-04-22T15:32:21.976Z,8.23
2018-04-22T15:34:49.457Z,9.77
2018-04-22T15:37:16.918Z,9.32
2018-04-22T15:39:44.427Z,5.60
2018-04-22T15:42:12.000Z,6.95
2018-04-22T15:44:39.478Z,9.50
2018-04-22T15:47:06.951Z,5.70
2018-04-22T15:49:34.448Z,6.35
2018-04-22T15:52:02.677Z,7.15
2018-04-22T15:54:30.168Z,5.97
2018-04-22T15:56:58.441Z,7.37
2018-04-22T15:59:26.709Z,4.72
2018-04-22T16:01:54.196Z,4.35
2018-04-22T16:04:21.711Z,8.70
2018-04-22T16:06:49.231Z,4.82
2018-04-22T16:09:16.707Z,3.30
2018-04-22T16:11:44.207Z,3.55
2018-04-22T16:14:12.456Z,3.45
2018-04-22T16:16:39.914Z,7.95
2018-04-22T16:19:07.498Z,6.70
2018-04-22T16:21:35.767Z,5.12
2018-04-22T16:24:04.032Z,6.45
2018-04-22T16:26:31.605Z,6.47
2018-04-22T16:28:59.105Z,5.15
2018-04-22T16:31:26.563Z,6.63
2018-04-22T16:33:54.045Z,5.82
2018-04-22T16:36:21.509Z,6.50
2018-04-22T16:38:48.988Z,5.80
2018-04-22T16:41:16.467Z,4.27
2018-04-22T16:43:44.732Z,4.43
2018-04-22T16:46:12.970Z,4.73
2018-04-22T16:48:40.452Z,5.60
2018-04-22T16:51:07.982Z,4.43
2018-04-22T16:53:36.224Z,7.33
2018-04-22T16:56:03.694Z,5.50
2018-04-22T16:58:31.179Z,3.90
2018-04-22T17:00:58.650Z,3.20
2018-04-22T17:03:26.214Z,6.27
2018-04-22T17:05:53.849Z,4.00
2018-04-22T17:08:21.293Z,4.60
2018-04-22T17:10:48.767Z,5.70
2018-04-22T17:13:16.264Z,7.50
2018-04-22T17:15:44.499Z,5.20
2018-04-22T17:18:12.108Z,4.67
2018-04-22T17:20:39.576Z,5.37
2018-04-22T17:23:07.081Z,15.03
2018-04-22T17:25:34.614Z,9.67
2018-04-22T17:28:02.128Z,9.30
2018-04-22T17:30:30.376Z,5.63
2018-04-22T17:32:57.924Z,8.63
2018-04-22T17:35:25.422Z,5.83
2018-04-22T17:37:53.676Z,7.40
2018-04-22T17:40:21.415Z,5.77
2018-04-22T17:42:48.883Z,6.57
2018-04-22T17:45:16.362Z,7.63
2018-04-22T17:47:43.852Z,5.43
2018-04-22T17:50:11.376Z,6.80
2018-04-22T17:52:38.947Z,8.63
2018-04-22T17:55:07.204Z,9.60
2018-04-22T17:57:34.688Z,8.97
2018-04-22T18:00:02.928Z,8.37
2018-04-22T18:02:30.417Z,7.57
2018-04-22T18:04:58.676Z,9.40
2018-04-22T18:07:26.149Z,7.27
2018-04-22T18:09:54.407Z,8.40
2018-04-22T18:12:21.883Z,5.83
2018-04-22T18:14:50.160Z,6.20
2018-04-22T18:17:18.387Z,4.13
2018-04-22T18:19:45.905Z,3.37
2018-04-22T18:22:13.405Z,9.10
2018-04-22T18:24:40.912Z,6.80
2018-04-22T18:27:09.157Z,9.07
2018-04-22T18:29:36.873Z,7.20
2018-04-22T18:32:04.392Z,8.37
2018-04-22T18:34:31.879Z,5.70
2018-04-22T18:36:59.353Z,8.50
2018-04-22T18:39:26.845Z,6.30
2018-04-22T18:41:54.314Z,6.87
2018-04-22T18:44:21.892Z,6.50
2018-04-22T18:46:50.141Z,7.40
2018-04-22T18:49:17.640Z,12.67
2018-04-22T18:51:45.873Z,11.43
2018-04-22T18:54:13.390Z,5.63
2018-04-22T18:56:40.855Z,5.37
2018-04-22T18:59:09.123Z,6.13
2018-04-22T19:01:36.718Z,6.37
2018-04-22T19:04:04.200Z,6.93
2018-04-22T19:06:31.655Z,7.10
2018-04-22T19:08:59.139Z,8.33
2018-04-22T19:11:26.627Z,8.30
2018-04-22T19:13:54.880Z,8.10
2018-04-22T19:16:22.478Z,11.57
2018-04-22T19:18:49.985Z,8.40
2018-04-22T19:21:17.453Z,11.20
2018-04-22T19:23:44.943Z,8.93
2018-04-22T19:26:13.197Z,4.30
2018-04-22T19:28:40.728Z,7.67
2018-04-22T19:31:08.229Z,9.23
2018-04-22T19:33:36.486Z,8.43
2018-04-22T19:36:03.951Z,8.53
2018-04-22T19:38:31.459Z,9.07
2018-04-22T19:40:58.929Z,6.27
2018-04-22T19:43:26.468Z,5.57
2018-04-22T19:45:53.943Z,9.50
2018-04-22T19:48:21.446Z,8.87
2018-04-22T19:50:49.707Z,6.60
2018-04-22T19:53:17.172Z,9.07
2018-04-22T19:55:44.653Z,11.10
2018-04-22T19:58:12.126Z,9.13
2018-04-22T20:00:39.603Z,6.63
2018-04-22T20:03:07.060Z,9.13
2018-04-22T20:05:34.552Z,10.80
2018-04-22T20:08:02.028Z,12.53
2018-04-22T20:10:30.332Z,14.57
2018-04-22T20:12:57.804Z,15.47
2018-04-22T20:15:25.305Z,10.00
2018-04-22T20:17:52.803Z,11.33
2018-04-22T20:20:20.369Z,11.10
2018-04-22T20:22:47.928Z,7.30
2018-04-22T20:25:15.439Z,28.13
2018-04-22T20:27:42.932Z,21.40
2018-04-22T20:30:10.425Z,12.13
2018-04-22T20:32:37.894Z,11.57
2018-04-22T20:35:05.375Z,9.50
2018-04-22T20:37:33.627Z,6.93
2018-04-22T20:40:01.145Z,15.50
2018-04-22T20:42:28.685Z,7.07
2018-04-22T20:44:56.158Z,7.40
2018-04-22T20:47:24.580Z,6.93
2018-04-22T20:49:52.074Z,5.77
2018-04-22T20:52:20.307Z,13.73
2018-04-22T20:54:47.830Z,9.07
2018-04-22T20:57:15.339Z,11.17
2018-04-22T20:59:43.586Z,9.60
2018-04-22T21:02:11.064Z,8.77
2018-04-22T21:04:38.536Z,8.03
2018-04-22T21:07:05.996Z,9.87
2018-04-22T21:09:33.489Z,8.27
2018-04-22T21:12:01.044Z,8.33
2018-04-22T21:14:28.520Z,7.30
2018-04-22T21:16:55.983Z,9.03
2018-04-22T21:19:23.573Z,12.43
2018-04-22T21:21:51.042Z,7.50
2018-04-22T21:24:18.548Z,17.20
2018-04-22T21:26:46.011Z,10.87
2018-04-22T21:29:13.560Z,7.70
2018-04-22T21:31:41.024Z,10.93
2018-04-22T21:34:08.544Z,9.43
2018-04-22T21:36:36.780Z,7.73
2018-04-22T21:39:05.027Z,10.53
2018-04-22T21:41:32.493Z,8.87
2018-04-22T21:44:00.005Z,7.10
2018-04-22T21:46:28.252Z,8.60
2018-04-22T21:48:55.775Z,11.97
2018-04-22T21:51:23.261Z,8.57
2018-04-22T21:53:50.733Z,10.17
2018-04-22T21:56:18.251Z,7.97
2018-04-22T21:58:45.732Z,12.50
2018-04-22T22:01:13.216Z,7.63
2018-04-22T22:03:40.796Z,10.50
2018-04-22T22:06:09.307Z,7.37
2018-04-22T22:08:36.775Z,8.83
2018-04-22T22:11:04.280Z,10.37
2018-04-22T22:13:31.926Z,8.73
2018-04-22T22:15:59.435Z,6.83
2018-04-22T22:18:26.921Z,9.43
2018-04-22T22:20:54.395Z,9.50
2018-04-22T22:23:21.876Z,13.10
2018-04-22T22:25:49.390Z,23.77
2018-04-22T22:28:16.902Z,14.63
2018-04-22T22:30:45.145Z,13.70
2018-04-22T22:33:12.627Z,8.87
2018-04-22T22:35:40.891Z,8.83
2018-04-22T22:38:09.152Z,11.00
2018-04-22T22:40:36.609Z,7.43
2018-04-22T22:43:04.079Z,6.30
2018-04-22T22:45:31.564Z,11.13
2018-04-22T22:47:59.038Z,10.03
2018-04-22T22:50:26.523Z,11.63
2018-04-22T22:52:54.026Z,12.20
2018-04-22T22:55:22.310Z,12.03
2018-04-22T22:57:50.575Z,6.77
2018-04-22T23:00:22.520Z,8.10
2018-04-22T23:02:50.061Z,12.53
2018-04-22T23:05:17.552Z,13.73
2018-04-22T23:07:45.780Z,11.80
2018-04-22T23:10:19.315Z,9.60
2018-04-22T23:12:46.794Z,11.00
2018-04-22T23:15:14.287Z,10.90
2018-04-22T23:17:41.752Z,9.53
2018-04-22T23:20:09.268Z,14.13
2018-04-22T23:22:36.738Z,10.90
2018-04-22T23:25:04.220Z,11.33
2018-04-22T23:27:31.759Z,15.57
2018-04-22T23:29:59.226Z,13.90
2018-04-22T23:32:26.783Z,12.60
2018-04-22T23:34:55.045Z,9.20
2018-04-22T23:37:22.591Z,9.90
2018-04-22T23:39:50.884Z,9.07
2018-04-22T23:42:18.420Z,10.47
2018-04-22T23:44:46.652Z,9.47
2018-04-22T23:47:14.155Z,11.33
2018-04-22T23:49:42.387Z,10.07
2018-04-22T23:52:09.981Z,10.00
2018-04-22T23:54:38.209Z,15.03
2018-04-22T23:57:05.728Z,10.33
2018-04-22T23:59:33.942Z,11.10
